Terminal Aerodrome Forecast
Issued by NWS

Home | Current Version | Previous Version | Text Only | Print | Product List | Glossary On
Versions: 1 2 3 4 5 6 7 8 9 10 11 12 13 14 15 16 17 18 19
000
FTUS43 KEAX 141000 AAA
TAFMKC
TAF AMD
KMKC 141000Z 1410/1506 13005KT 2SM -SN OVC028
     FM141300 17009KT 5SM -SN OVC025
     FM141600 20010KT P6SM BKN040=

USA.gov is the U.S. government's official web portal to all federal, state and local government web resources and services.